createdAt,value
2022-11-03T00:02:04.437Z,6.18
2022-11-03T00:04:31.601Z,6.05
2022-11-03T00:06:58.893Z,3.63
2022-11-03T00:09:27.359Z,3.20
2022-11-03T00:11:54.786Z,3.92
2022-11-03T00:14:21.836Z,7.68
2022-11-03T00:16:49.277Z,8.32
2022-11-03T00:19:17.300Z,7.03
2022-11-03T00:21:45.533Z,5.85
2022-11-03T00:24:13.564Z,3.95
2022-11-03T00:26:40.618Z,4.07
2022-11-03T00:29:13.191Z,3.88
2022-11-03T00:31:42.553Z,3.30
2022-11-03T00:34:10.474Z,4.05
2022-11-03T00:36:43.159Z,5.90
2022-11-03T00:39:11.464Z,5.95
2022-11-03T00:41:38.929Z,4.68
2022-11-03T00:44:06.553Z,5.20
2022-11-03T00:46:36.310Z,6.45
2022-11-03T00:49:04.940Z,2.58
2022-11-03T00:51:34.095Z,2.50
2022-11-03T00:54:03.546Z,2.17
2022-11-03T00:56:39.548Z,3.88
2022-11-03T00:59:08.717Z,1.42
2022-11-03T01:01:45.869Z,1.83
2022-11-03T01:04:34.236Z,2.08
2022-11-03T01:07:02.596Z,2.33
2022-11-03T01:09:38.590Z,2.05
2022-11-03T01:12:12.024Z,3.60
2022-11-03T01:14:41.914Z,2.90
2022-11-03T01:17:14.679Z,3.13
2022-11-03T01:19:42.012Z,2.50
2022-11-03T01:22:11.077Z,1.80
2022-11-03T01:24:41.414Z,1.77
2022-11-03T01:27:13.422Z,2.92
2022-11-03T01:29:41.506Z,2.88
2022-11-03T01:32:09.041Z,2.92
2022-11-03T01:34:37.133Z,2.83
2022-11-03T01:37:04.716Z,3.63
2022-11-03T01:39:31.796Z,3.45
2022-11-03T01:41:58.926Z,2.05
2022-11-03T01:44:31.050Z,1.88
2022-11-03T01:47:15.041Z,2.47
2022-11-03T01:49:42.001Z,2.08
2022-11-03T01:52:15.079Z,1.77
2022-11-03T01:54:46.057Z,2.17
2022-11-03T01:57:17.286Z,1.67
2022-11-03T01:59:45.956Z,2.92
2022-11-03T02:02:17.879Z,2.10
2022-11-03T02:04:45.410Z,2.50
2022-11-03T02:07:53.838Z,2.30
2022-11-03T02:10:22.710Z,1.75
2022-11-03T02:12:49.759Z,1.98
2022-11-03T02:15:21.561Z,1.83
2022-11-03T02:17:52.009Z,1.92
2022-11-03T02:20:22.764Z,1.88
2022-11-03T02:23:14.772Z,2.30
2022-11-03T02:25:48.413Z,2.13
2022-11-03T02:28:27.982Z,1.50
2022-11-03T02:31:17.081Z,2.25
2022-11-03T02:33:56.562Z,10.00
2022-11-03T02:36:41.787Z,1.90
2022-11-03T02:39:11.832Z,2.28
2022-11-03T02:41:40.347Z,2.53
2022-11-03T02:44:14.570Z,1.92
2022-11-03T02:46:44.549Z,2.25
2022-11-03T02:49:11.688Z,2.17
2022-11-03T02:51:38.970Z,2.28
2022-11-03T02:54:20.181Z,2.88
2022-11-03T02:56:56.291Z,1.70
2022-11-03T02:59:41.918Z,2.08
2022-11-03T03:02:12.418Z,2.15
2022-11-03T03:04:43.241Z,2.78
2022-11-03T03:07:16.839Z,2.80
2022-11-03T03:09:55.311Z,3.20
2022-11-03T03:12:24.042Z,1.98
2022-11-03T03:14:52.023Z,2.22
2022-11-03T03:17:26.481Z,2.83
2022-11-03T03:20:00.807Z,2.20
2022-11-03T03:22:46.048Z,2.28
2022-11-03T03:25:21.131Z,2.17
2022-11-03T03:27:55.277Z,1.67
2022-11-03T03:30:22.399Z,2.30
2022-11-03T03:32:52.389Z,1.73
2022-11-03T03:35:23.582Z,2.15
2022-11-03T03:37:55.658Z,1.80
2022-11-03T03:40:34.409Z,2.58
2022-11-03T03:43:04.506Z,2.40
2022-11-03T03:45:32.513Z,1.95
2022-11-03T03:48:00.077Z,2.20
2022-11-03T03:50:31.715Z,1.90
2022-11-03T03:53:02.242Z,2.60
2022-11-03T03:55:43.761Z,2.63
2022-11-03T03:58:13.821Z,1.92
2022-11-03T04:00:41.718Z,2.20
2022-11-03T04:03:15.797Z,2.22
2022-11-03T04:05:43.153Z,2.92
2022-11-03T04:08:12.125Z,3.03
2022-11-03T04:10:39.679Z,2.75
2022-11-03T04:13:26.536Z,2.63
2022-11-03T04:16:12.460Z,3.15
2022-11-03T04:18:58.197Z,3.53
2022-11-03T04:21:44.088Z,1.98
2022-11-03T04:24:11.076Z,2.50
2022-11-03T04:26:38.073Z,2.55
2022-11-03T04:29:09.584Z,2.38
2022-11-03T04:31:37.029Z,2.97
2022-11-03T04:34:10.120Z,2.10
2022-11-03T04:36:37.092Z,2.47
2022-11-03T04:39:15.332Z,3.08
2022-11-03T04:41:42.770Z,2.60
2022-11-03T04:44:16.699Z,4.70
2022-11-03T04:46:45.937Z,2.40
2022-11-03T04:49:21.813Z,2.35
2022-11-03T04:51:49.904Z,3.22
2022-11-03T04:54:21.372Z,2.58
2022-11-03T04:56:48.427Z,2.88
2022-11-03T04:59:16.665Z,2.28
2022-11-03T05:01:45.884Z,2.50
2022-11-03T05:04:16.801Z,2.42
2022-11-03T05:07:02.059Z,2.78
2022-11-03T05:09:30.287Z,3.58
2022-11-03T05:11:57.904Z,2.22
2022-11-03T05:14:28.016Z,2.50
2022-11-03T05:16:56.241Z,1.80
2022-11-03T05:19:31.457Z,3.80
2022-11-03T05:22:00.136Z,2.75
2022-11-03T05:24:27.712Z,1.92
2022-11-03T05:26:56.326Z,3.35
2022-11-03T05:29:36.865Z,2.83
2022-11-03T05:32:13.870Z,3.10
2022-11-03T05:34:47.088Z,4.10
2022-11-03T05:37:28.295Z,3.67
2022-11-03T05:40:00.746Z,4.65
2022-11-03T05:42:39.650Z,3.40
2022-11-03T05:45:24.163Z,4.00
2022-11-03T05:47:55.373Z,3.28
2022-11-03T05:50:28.139Z,4.22
2022-11-03T05:53:26.892Z,5.22
2022-11-03T05:55:55.711Z,4.20
2022-11-03T05:58:34.662Z,3.22
2022-11-03T06:01:05.193Z,4.45
2022-11-03T06:03:36.407Z,6.28
2022-11-03T06:06:16.385Z,4.47
2022-11-03T06:08:46.015Z,3.63
2022-11-03T06:11:24.571Z,5.60
2022-11-03T06:13:52.040Z,5.70
2022-11-03T06:16:36.139Z,3.85
2022-11-03T06:19:18.523Z,3.65
2022-11-03T06:21:47.392Z,4.13
2022-11-03T06:24:17.673Z,7.82
2022-11-03T06:26:46.820Z,4.72
2022-11-03T06:29:17.064Z,3.90
2022-11-03T06:31:53.086Z,3.47
2022-11-03T06:34:31.631Z,3.83
2022-11-03T06:37:02.561Z,3.63
2022-11-03T06:39:29.672Z,3.30
2022-11-03T06:41:56.795Z,3.78
2022-11-03T06:44:25.583Z,4.22
2022-11-03T06:47:14.009Z,3.08
2022-11-03T06:49:40.998Z,3.17
2022-11-03T06:52:24.177Z,3.05
2022-11-03T06:54:59.403Z,3.45
2022-11-03T06:57:26.995Z,2.88
2022-11-03T07:00:06.580Z,2.67
2022-11-03T07:02:58.882Z,2.65
2022-11-03T07:05:31.141Z,2.63
2022-11-03T07:08:03.912Z,2.50
2022-11-03T07:10:33.235Z,3.00
2022-11-03T07:13:07.120Z,2.80
2022-11-03T07:15:38.116Z,2.63
2022-11-03T07:18:19.511Z,3.33
2022-11-03T07:20:47.338Z,3.13
2022-11-03T07:23:19.854Z,2.47
2022-11-03T07:25:54.622Z,2.22
2022-11-03T07:28:26.481Z,4.47
2022-11-03T07:30:54.511Z,2.60
2022-11-03T07:33:26.523Z,2.90
2022-11-03T07:38:47.867Z,2.58
2022-11-03T07:41:28.157Z,1.85
2022-11-03T07:43:59.896Z,3.40
2022-11-03T07:46:27.114Z,3.22
2022-11-03T07:48:59.512Z,4.38
2022-11-03T07:51:37.388Z,2.95
2022-11-03T07:54:19.378Z,3.50
2022-11-03T07:57:03.821Z,2.50
2022-11-03T07:59:38.976Z,3.75
2022-11-03T08:02:26.880Z,3.15
2022-11-03T08:04:54.017Z,2.92
2022-11-03T08:07:21.118Z,3.05
2022-11-03T08:09:48.131Z,3.35
2022-11-03T08:12:15.123Z,2.70
2022-11-03T08:14:42.120Z,2.90
2022-11-03T08:17:09.272Z,4.13
2022-11-03T08:19:36.239Z,3.17
2022-11-03T08:22:03.397Z,2.10
2022-11-03T08:24:30.739Z,2.47
2022-11-03T08:26:57.804Z,2.17
2022-11-03T08:29:27.382Z,2.40
2022-11-03T08:31:54.567Z,2.47
2022-11-03T08:34:22.145Z,1.58
2022-11-03T08:36:49.115Z,2.08
2022-11-03T08:39:16.564Z,2.60
2022-11-03T08:41:43.675Z,3.40
2022-11-03T08:44:10.660Z,2.42
2022-11-03T08:46:37.766Z,2.38
2022-11-03T08:49:04.986Z,2.22
2022-11-03T08:51:32.402Z,2.65
2022-11-03T08:53:59.481Z,2.22
2022-11-03T08:56:26.441Z,1.80
2022-11-03T08:58:53.488Z,1.65
2022-11-03T09:01:20.488Z,2.20
2022-11-03T09:03:47.616Z,3.42
2022-11-03T09:06:14.712Z,2.47
2022-11-03T09:11:29.634Z,2.13
2022-11-03T09:13:57.713Z,1.63
2022-11-03T09:16:24.727Z,2.53
2022-11-03T09:18:51.710Z,1.65
2022-11-03T09:21:18.733Z,2.30
2022-11-03T09:23:45.771Z,1.83
2022-11-03T09:26:12.830Z,1.88
2022-11-03T09:28:39.845Z,1.60
2022-11-03T09:31:06.807Z,1.50
2022-11-03T09:33:33.828Z,2.13
2022-11-03T09:36:02.228Z,2.10
2022-11-03T09:38:29.546Z,2.03
2022-11-03T09:40:56.630Z,1.42
2022-11-03T09:43:23.832Z,1.80
2022-11-03T09:45:51.043Z,1.40
2022-11-03T09:48:18.178Z,2.28
2022-11-03T09:50:49.397Z,2.40
2022-11-03T09:53:16.428Z,1.67
2022-11-03T09:55:43.485Z,3.13
2022-11-03T09:58:14.751Z,2.28
2022-11-03T10:00:42.205Z,1.67
2022-11-03T10:03:12.240Z,1.35
2022-11-03T10:05:40.325Z,1.52
2022-11-03T10:08:22.868Z,1.58
2022-11-03T10:10:54.255Z,1.80
2022-11-03T10:13:39.075Z,1.70
2022-11-03T10:16:08.792Z,1.90
2022-11-03T10:18:36.757Z,2.05
2022-11-03T10:21:19.649Z,2.00
2022-11-03T10:26:19.356Z,1.80
2022-11-03T10:29:01.444Z,1.95
2022-11-03T10:31:37.086Z,1.92
2022-11-03T10:34:25.048Z,1.75
2022-11-03T10:37:22.405Z,1.80
2022-11-03T10:39:51.780Z,1.70
2022-11-03T10:42:21.772Z,2.80
2022-11-03T10:44:52.759Z,2.55
2022-11-03T10:47:37.790Z,2.17
2022-11-03T10:50:31.120Z,1.77
2022-11-03T10:52:58.512Z,1.50
2022-11-03T10:55:26.524Z,1.83
2022-11-03T10:57:58.580Z,1.90
2022-11-03T11:00:26.366Z,1.88
2022-11-03T11:02:59.250Z,1.85
2022-11-03T11:05:28.183Z,1.77
2022-11-03T11:07:55.872Z,2.13
2022-11-03T11:10:31.244Z,2.00
2022-11-03T11:13:24.304Z,2.22
2022-11-03T11:18:27.609Z,3.25
2022-11-03T11:20:59.147Z,2.20
2022-11-03T11:23:29.292Z,1.92
2022-11-03T11:26:14.873Z,1.98
2022-11-03T11:29:00.211Z,2.67
2022-11-03T11:31:27.241Z,2.78
2022-11-03T11:34:17.002Z,3.08
2022-11-03T11:36:54.149Z,5.20
2022-11-03T11:39:24.205Z,2.47
2022-11-03T11:42:06.854Z,2.17
2022-11-03T11:44:43.088Z,2.90
2022-11-03T11:47:35.184Z,1.63
2022-11-03T11:50:11.410Z,2.15
2022-11-03T11:52:58.554Z,2.40
2022-11-03T11:55:55.042Z,1.92
2022-11-03T11:58:43.553Z,2.47
2022-11-03T12:01:23.750Z,2.63
2022-11-03T12:03:56.103Z,2.63
2022-11-03T12:06:37.449Z,2.50
2022-11-03T12:09:05.928Z,2.58
2022-11-03T12:11:45.875Z,2.75
2022-11-03T12:14:33.296Z,2.47
2022-11-03T12:17:18.447Z,3.00
2022-11-03T12:19:52.884Z,2.63
2022-11-03T12:22:29.432Z,2.67
2022-11-03T12:25:01.040Z,3.22
2022-11-03T12:27:28.824Z,2.72
2022-11-03T12:29:58.119Z,2.30
2022-11-03T12:32:33.605Z,3.13
2022-11-03T12:35:03.138Z,3.50
2022-11-03T12:37:30.121Z,2.47
2022-11-03T12:39:57.121Z,3.65
2022-11-03T12:42:25.267Z,2.70
2022-11-03T12:44:52.959Z,4.10
2022-11-03T12:47:20.595Z,2.60
2022-11-03T12:49:47.876Z,2.22
2022-11-03T12:52:15.642Z,2.90
2022-11-03T12:54:42.944Z,2.28
2022-11-03T12:57:10.033Z,2.40
2022-11-03T12:59:37.091Z,2.58
2022-11-03T13:02:04.619Z,2.65
2022-11-03T13:04:32.089Z,2.38
2022-11-03T13:06:59.220Z,2.20
2022-11-03T13:09:26.588Z,2.53
2022-11-03T13:12:12.169Z,2.17
2022-11-03T13:14:41.172Z,2.35
2022-11-03T13:17:11.353Z,1.88
2022-11-03T13:19:38.369Z,2.40
2022-11-03T13:22:05.656Z,2.25
2022-11-03T13:24:32.713Z,2.38
2022-11-03T13:26:59.702Z,2.50
2022-11-03T13:29:31.079Z,2.90
2022-11-03T13:32:01.190Z,2.47
2022-11-03T13:34:28.481Z,2.40
2022-11-03T13:36:55.642Z,2.20
2022-11-03T13:39:22.892Z,3.17
2022-11-03T13:41:49.963Z,2.20
2022-11-03T13:44:17.758Z,2.33
2022-11-03T13:46:44.824Z,3.10
2022-11-03T13:51:59.211Z,1.83
2022-11-03T14:00:03.676Z,1.85
2022-11-03T14:05:30.696Z,2.58
2022-11-03T14:07:58.038Z,2.50
2022-11-03T14:10:25.202Z,2.60
2022-11-03T14:12:52.543Z,2.10
2022-11-03T14:15:20.344Z,1.95
2022-11-03T14:17:47.344Z,2.53
2022-11-03T14:20:14.518Z,2.35
2022-11-03T14:22:41.652Z,2.67
2022-11-03T14:25:09.568Z,2.63
2022-11-03T14:27:36.724Z,2.63
2022-11-03T14:30:04.871Z,1.77
2022-11-03T14:32:32.157Z,2.42
2022-11-03T14:34:59.214Z,2.65
2022-11-03T14:37:28.164Z,2.75
2022-11-03T14:39:55.209Z,2.25
2022-11-03T14:42:22.290Z,3.30
2022-11-03T14:44:50.136Z,2.55
2022-11-03T14:47:19.431Z,2.40
2022-11-03T14:49:46.724Z,2.80
2022-11-03T14:52:14.670Z,2.85
2022-11-03T14:54:41.810Z,3.78
2022-11-03T14:57:09.715Z,2.22
2022-11-03T14:59:37.233Z,2.00
2022-11-03T15:02:04.941Z,2.65
2022-11-03T15:04:32.265Z,2.50
2022-11-03T15:06:59.322Z,1.80
2022-11-03T15:09:26.321Z,2.25
2022-11-03T15:11:53.550Z,2.53
2022-11-03T15:14:20.681Z,1.80
2022-11-03T15:16:48.042Z,2.40
2022-11-03T15:19:15.433Z,2.85
2022-11-03T15:21:42.511Z,2.22
2022-11-03T15:26:56.630Z,2.20
2022-11-03T15:29:24.085Z,2.70
2022-11-03T15:31:51.717Z,3.10
2022-11-03T15:34:18.782Z,1.77
2022-11-03T15:36:45.772Z,2.17
2022-11-03T15:39:13.300Z,2.28
2022-11-03T15:41:40.660Z,2.03
2022-11-03T15:44:07.655Z,1.73
2022-11-03T15:46:35.826Z,2.05
2022-11-03T15:49:03.294Z,4.65
2022-11-03T15:51:30.368Z,2.33
2022-11-03T15:53:59.064Z,2.28
2022-11-03T15:56:27.144Z,1.90
2022-11-03T15:58:54.478Z,2.85
2022-11-03T16:01:21.853Z,1.80
2022-11-03T16:03:49.104Z,2.45
2022-11-03T16:06:16.195Z,2.67
2022-11-03T16:08:43.495Z,3.47
2022-11-03T16:11:10.500Z,2.67
2022-11-03T16:13:37.684Z,2.03
2022-11-03T16:16:05.040Z,3.42
2022-11-03T16:18:32.082Z,2.35
2022-11-03T16:20:59.841Z,2.45
2022-11-03T16:23:27.305Z,2.58
2022-11-03T16:25:54.263Z,3.20
2022-11-03T16:28:21.441Z,2.00
2022-11-03T16:30:53.852Z,2.78
2022-11-03T16:33:21.752Z,2.80
2022-11-03T16:35:49.176Z,3.15
2022-11-03T16:38:16.351Z,3.20
2022-11-03T16:40:43.710Z,2.75
2022-11-03T16:43:11.484Z,3.70
2022-11-03T16:45:38.600Z,3.00
2022-11-03T16:48:07.152Z,2.90
2022-11-03T16:50:35.279Z,3.20
2022-11-03T16:53:02.910Z,4.32
2022-11-03T16:55:29.950Z,2.83
2022-11-03T16:57:57.181Z,3.47
2022-11-03T17:00:24.510Z,3.25
2022-11-03T17:02:52.011Z,3.40
2022-11-03T17:05:21.087Z,3.63
2022-11-03T17:07:53.624Z,3.17
2022-11-03T17:10:22.554Z,2.80
2022-11-03T17:12:50.245Z,3.10
2022-11-03T17:15:17.455Z,4.47
2022-11-03T17:17:44.630Z,4.05
2022-11-03T17:20:12.450Z,3.65
2022-11-03T17:22:39.828Z,3.55
2022-11-03T17:25:09.362Z,2.90
2022-11-03T17:27:45.026Z,3.30
2022-11-03T17:30:18.615Z,2.80
2022-11-03T17:32:48.829Z,2.90
2022-11-03T17:35:36.336Z,5.25
2022-11-03T17:38:13.661Z,2.83
2022-11-03T17:40:43.218Z,3.75
2022-11-03T17:43:17.672Z,3.75
2022-11-03T17:45:44.702Z,4.05
2022-11-03T17:48:11.693Z,3.70
2022-11-03T17:50:42.150Z,3.72
2022-11-03T17:53:28.666Z,4.25
2022-11-03T17:56:27.620Z,3.40
2022-11-03T17:58:47.137Z,4.30
2022-11-03T18:01:23.841Z,3.55
2022-11-03T18:03:52.314Z,4.03
2022-11-03T18:06:20.563Z,3.72
2022-11-03T18:08:48.850Z,3.60
2022-11-03T18:11:43.843Z,3.58
2022-11-03T18:14:11.121Z,2.58
2022-11-03T18:16:38.324Z,3.47
2022-11-03T18:19:09.572Z,11.68
2022-11-03T18:21:36.641Z,2.55
2022-11-03T18:24:13.323Z,3.55
2022-11-03T18:26:40.510Z,4.57
2022-11-03T18:31:49.584Z,4.10
2022-11-03T18:34:24.269Z,3.17
2022-11-03T18:36:52.841Z,4.03
2022-11-03T18:39:28.672Z,3.42
2022-11-03T18:41:55.970Z,3.65
2022-11-03T18:44:25.713Z,3.30
2022-11-03T18:46:54.431Z,4.15
2022-11-03T18:49:22.513Z,4.60
2022-11-03T18:51:54.423Z,4.10
2022-11-03T18:54:25.126Z,3.70
2022-11-03T18:56:53.427Z,4.47
2022-11-03T18:59:36.816Z,4.47
2022-11-03T19:02:15.910Z,5.35
2022-11-03T19:04:43.023Z,4.47
2022-11-03T19:07:14.210Z,4.65
2022-11-03T19:09:42.318Z,4.63
2022-11-03T19:12:13.130Z,4.90
2022-11-03T19:14:42.066Z,4.30
2022-11-03T19:17:28.960Z,4.22
2022-11-03T19:19:55.963Z,4.35
2022-11-03T19:22:23.528Z,4.82
2022-11-03T19:24:50.771Z,4.65
2022-11-03T19:27:29.914Z,4.22
2022-11-03T19:29:59.390Z,3.80
2022-11-03T19:32:33.410Z,3.88
2022-11-03T19:35:05.941Z,4.65
2022-11-03T19:37:35.847Z,4.40
2022-11-03T19:40:08.563Z,3.30
2022-11-03T19:42:38.332Z,3.97
2022-11-03T19:45:14.674Z,3.95
2022-11-03T19:47:57.604Z,4.13
2022-11-03T19:50:33.057Z,4.30
2022-11-03T19:53:06.172Z,4.05
2022-11-03T19:55:36.447Z,3.92
2022-11-03T19:58:15.650Z,3.75
2022-11-03T20:00:43.981Z,3.80
2022-11-03T20:03:11.542Z,4.35
2022-11-03T20:05:39.611Z,4.00
2022-11-03T20:08:11.710Z,3.47
2022-11-03T20:10:38.908Z,3.33
2022-11-03T20:13:08.671Z,3.38
2022-11-03T20:15:35.932Z,3.72
2022-11-03T20:18:02.995Z,2.92
2022-11-03T20:20:36.450Z,2.72
2022-11-03T20:23:05.208Z,2.47
2022-11-03T20:25:35.229Z,2.22
2022-11-03T20:28:16.041Z,2.30
2022-11-03T20:30:43.126Z,1.98
2022-11-03T20:33:15.591Z,2.53
2022-11-03T20:35:44.175Z,2.15
2022-11-03T20:38:14.384Z,1.90
2022-11-03T20:40:42.215Z,2.35
2022-11-03T20:43:22.624Z,2.38
2022-11-03T20:45:50.011Z,5.18
2022-11-03T20:48:17.113Z,3.08
2022-11-03T20:50:44.935Z,1.73
2022-11-03T20:53:16.105Z,1.75
2022-11-03T20:55:43.292Z,2.00
2022-11-03T20:58:15.959Z,1.73
2022-11-03T21:03:37.744Z,2.17
2022-11-03T21:06:13.282Z,1.50
2022-11-03T21:08:40.373Z,1.50
2022-11-03T21:11:24.986Z,1.92
2022-11-03T21:13:54.464Z,1.40
2022-11-03T21:16:41.598Z,1.92
2022-11-03T21:19:37.917Z,1.70
2022-11-03T21:22:52.374Z,2.28
2022-11-03T21:25:21.890Z,2.10
2022-11-03T21:27:52.143Z,1.75
2022-11-03T21:30:19.500Z,2.83
2022-11-03T21:32:47.827Z,1.88
2022-11-03T21:35:17.348Z,1.83
2022-11-03T21:37:44.556Z,2.05
2022-11-03T21:40:12.093Z,2.25
2022-11-03T21:42:57.813Z,2.38
2022-11-03T21:45:25.878Z,2.63
2022-11-03T21:48:13.959Z,1.85
2022-11-03T21:50:42.305Z,2.13
2022-11-03T21:53:10.782Z,2.25
2022-11-03T21:55:38.330Z,2.13
2022-11-03T21:58:05.764Z,2.35
2022-11-03T22:00:33.333Z,1.90
2022-11-03T22:03:01.068Z,1.60
2022-11-03T22:05:28.057Z,1.65
2022-11-03T22:07:55.376Z,1.80
2022-11-03T22:10:22.557Z,2.03
2022-11-03T22:12:49.953Z,1.75
2022-11-03T22:15:35.983Z,1.80
2022-11-03T22:18:04.368Z,1.60
2022-11-03T22:20:50.248Z,1.48
2022-11-03T22:23:36.025Z,1.55
2022-11-03T22:26:21.761Z,1.20
2022-11-03T22:29:08.776Z,1.30
2022-11-03T22:31:41.588Z,1.02
2022-11-03T22:34:27.863Z,0.85
2022-11-03T22:36:54.930Z,1.02
2022-11-03T22:39:50.966Z,0.93
2022-11-03T22:42:36.563Z,1.15
2022-11-03T22:45:22.581Z,0.70
2022-11-03T22:47:56.906Z,0.68
2022-11-03T22:50:24.669Z,0.73
2022-11-03T22:52:51.789Z,0.50
2022-11-03T22:55:18.797Z,0.70
2022-11-03T22:57:45.778Z,0.50
2022-11-03T23:00:13.760Z,0.47
2022-11-03T23:02:40.910Z,0.50
2022-11-03T23:05:08.170Z,0.45
2022-11-03T23:07:40.790Z,0.65
2022-11-03T23:10:09.056Z,0.50
2022-11-03T23:12:36.087Z,0.65
2022-11-03T23:15:21.881Z,0.65
2022-11-03T23:18:07.818Z,0.40
2022-11-03T23:20:57.534Z,0.80
2022-11-03T23:23:43.063Z,0.60
2022-11-03T23:26:12.385Z,0.40
2022-11-03T23:28:39.379Z,0.45
2022-11-03T23:31:06.481Z,0.60
2022-11-03T23:33:33.725Z,0.40
2022-11-03T23:36:08.545Z,0.50
2022-11-03T23:38:37.024Z,0.57
2022-11-03T23:41:06.980Z,0.50
2022-11-03T23:43:34.268Z,0.65
2022-11-03T23:46:19.734Z,0.70
2022-11-03T23:48:46.842Z,1.02
2022-11-03T23:51:22.170Z,0.80
2022-11-03T23:53:50.109Z,0.98
2022-11-03T23:56:39.074Z,0.90
2022-11-03T23:59:07.565Z,0.80
